createdAt,value
2023-03-22T00:00:18.197Z,48.4024
2023-03-22T00:01:19.606Z,48.6258
2023-03-22T00:02:21.054Z,48.3774
2023-03-22T00:03:22.510Z,48.2907
2023-03-22T00:04:23.861Z,48.7444
2023-03-22T00:05:25.289Z,48.9621
2023-03-22T00:06:26.724Z,48.9584
2023-03-22T00:07:28.153Z,49.0498
2023-03-22T00:08:29.558Z,49.0229
2023-03-22T00:09:30.974Z,49.0989
2023-03-22T00:10:32.398Z,49.0622
2023-03-22T00:11:33.806Z,49.1745
2023-03-22T00:12:35.254Z,49.0293
2023-03-22T00:13:36.681Z,49.1966
2023-03-22T00:14:38.106Z,49.2078
2023-03-22T00:15:39.560Z,49.2812
2023-03-22T00:16:40.934Z,49.1236
2023-03-22T00:17:42.344Z,49.1201
2023-03-22T00:18:43.767Z,49.2904
2023-03-22T00:19:45.202Z,49.4779
2023-03-22T00:20:46.618Z,49.3527
2023-03-22T00:21:48.034Z,49.4846
2023-03-22T00:22:49.460Z,49.3630
2023-03-22T00:23:50.886Z,49.4862
2023-03-22T00:24:52.322Z,49.4549
2023-03-22T00:25:53.718Z,49.6697
2023-03-22T00:26:55.156Z,49.5926
2023-03-22T00:27:56.576Z,49.6586
2023-03-22T00:28:58.016Z,49.8895
2023-03-22T00:29:59.547Z,49.6937
2023-03-22T00:31:00.948Z,49.8294
2023-03-22T00:32:02.291Z,49.6542
2023-03-22T00:33:03.726Z,49.8027
2023-03-22T00:34:05.132Z,49.9657
2023-03-22T00:35:06.574Z,49.9263
2023-03-22T00:36:07.988Z,50.2167
2023-03-22T00:37:09.432Z,49.9556
2023-03-22T00:38:10.841Z,50.0710
2023-03-22T00:39:12.263Z,50.0266
2023-03-22T00:40:13.676Z,50.0062
2023-03-22T00:41:15.115Z,50.1722
2023-03-22T00:42:16.528Z,50.1483
2023-03-22T00:43:17.966Z,50.0960
2023-03-22T00:44:19.377Z,50.1938
2023-03-22T00:45:20.823Z,50.3386
2023-03-22T00:46:22.320Z,50.1750
2023-03-22T00:47:23.667Z,50.0257
2023-03-22T00:48:25.111Z,50.3432
2023-03-22T00:49:26.514Z,50.4290
2023-03-22T00:50:27.926Z,50.4457
2023-03-22T00:51:29.364Z,50.3745
2023-03-22T00:52:30.767Z,50.5955
2023-03-22T00:53:32.195Z,50.6172
2023-03-22T00:54:33.619Z,50.6144
2023-03-22T00:55:35.051Z,50.5226
2023-03-22T00:56:36.488Z,50.5854
2023-03-22T00:57:37.952Z,50.6710
2023-03-22T00:58:39.317Z,50.7696
2023-03-22T00:59:40.757Z,50.7298
2023-03-22T01:00:42.518Z,50.8436
2023-03-22T01:01:43.602Z,50.7373
2023-03-22T01:02:45.038Z,50.6783
2023-03-22T01:03:46.489Z,50.8049
2023-03-22T01:04:47.887Z,50.6624
2023-03-22T01:05:49.409Z,50.8230
2023-03-22T01:06:50.820Z,50.9305
2023-03-22T01:07:52.239Z,50.8698
2023-03-22T01:08:53.672Z,50.8758
2023-03-22T01:09:55.099Z,50.9626
2023-03-22T01:10:56.521Z,50.9524
2023-03-22T01:11:57.928Z,50.9167
2023-03-22T01:12:59.360Z,50.9814
2023-03-22T01:14:00.794Z,50.8889
2023-03-22T01:15:02.242Z,50.9718
2023-03-22T01:16:03.661Z,50.8826
2023-03-22T01:17:05.077Z,51.0259
2023-03-22T01:18:06.508Z,51.0088
2023-03-22T01:19:07.918Z,51.0917
2023-03-22T01:20:09.355Z,50.8713
2023-03-22T01:21:10.766Z,51.0730
2023-03-22T01:22:12.195Z,50.9250
2023-03-22T01:23:13.631Z,51.0712
2023-03-22T01:24:15.039Z,51.1247
2023-03-22T01:25:16.448Z,51.1848
2023-03-22T01:26:17.903Z,51.0775
2023-03-22T01:27:19.306Z,51.3021
2023-03-22T01:28:20.761Z,51.3843
2023-03-22T01:29:22.161Z,51.2598
2023-03-22T01:30:23.607Z,51.2414
2023-03-22T01:31:25.007Z,51.1648
2023-03-22T01:32:26.443Z,51.3879
2023-03-22T01:33:27.873Z,51.2895
2023-03-22T01:34:29.301Z,51.4881
2023-03-22T01:35:30.781Z,51.4738
2023-03-22T01:36:32.158Z,51.3840
2023-03-22T01:37:33.593Z,51.4255
2023-03-22T01:38:35.041Z,51.5514
2023-03-22T01:39:36.441Z,51.4729
2023-03-22T01:40:38.319Z,51.4991
2023-03-22T01:41:39.289Z,51.6222
2023-03-22T01:42:40.722Z,51.7950
2023-03-22T01:43:42.196Z,51.8142
2023-03-22T01:44:43.579Z,51.6691
2023-03-22T01:45:45.003Z,51.6551
2023-03-22T01:46:46.438Z,51.7704
2023-03-22T01:47:47.846Z,51.7714
2023-03-22T01:48:49.327Z,51.8927
2023-03-22T01:49:50.705Z,51.9735
2023-03-22T01:50:52.139Z,51.9010
2023-03-22T01:51:53.557Z,51.9730
2023-03-22T01:52:54.988Z,52.0540
2023-03-22T01:53:56.423Z,51.8503
2023-03-22T01:54:57.835Z,51.8862
2023-03-22T01:55:59.260Z,51.9488
2023-03-22T01:57:00.697Z,51.9459
2023-03-22T01:58:02.101Z,52.0783
2023-03-22T01:59:03.537Z,52.0589
2023-03-22T02:00:04.945Z,52.0200
2023-03-22T02:01:06.469Z,52.0849
2023-03-22T02:02:07.797Z,52.1593
2023-03-22T02:03:09.220Z,52.2971
2023-03-22T02:04:10.656Z,52.2318
2023-03-22T02:05:12.090Z,52.3643
2023-03-22T02:06:13.515Z,52.3529
2023-03-22T02:07:14.916Z,52.4974
2023-03-22T02:08:16.345Z,52.5253
2023-03-22T02:09:17.783Z,52.4401
2023-03-22T02:10:19.201Z,52.3753
2023-03-22T02:11:20.648Z,52.4199
2023-03-22T02:12:22.055Z,52.3423
2023-03-22T02:13:23.504Z,52.3615
2023-03-22T02:14:27.191Z,52.4561
2023-03-22T02:15:26.311Z,52.5038
2023-03-22T02:16:27.752Z,52.3403
2023-03-22T02:17:29.174Z,52.4393
2023-03-22T02:18:30.568Z,52.4426
2023-03-22T02:19:31.986Z,52.3891
2023-03-22T02:20:33.393Z,52.7282
2023-03-22T02:21:34.812Z,52.5205
2023-03-22T02:22:36.210Z,52.3812
2023-03-22T02:23:37.682Z,52.5482
2023-03-22T02:24:39.073Z,52.5334
2023-03-22T02:25:40.501Z,52.4694
2023-03-22T02:26:41.913Z,52.5162
2023-03-22T02:27:43.341Z,52.3933
2023-03-22T02:28:44.828Z,52.5868
2023-03-22T02:29:46.194Z,52.4182
2023-03-22T02:30:47.606Z,52.7094
2023-03-22T02:31:49.047Z,52.6106
2023-03-22T02:32:50.437Z,52.7267
2023-03-22T02:33:51.871Z,52.6768
2023-03-22T02:34:53.274Z,52.7391
2023-03-22T02:35:54.716Z,52.6852
2023-03-22T02:36:56.124Z,52.7268
2023-03-22T02:37:57.579Z,52.9057
2023-03-22T02:38:58.961Z,52.7385
2023-03-22T02:40:00.374Z,52.8298
2023-03-22T02:41:01.797Z,52.8309
2023-03-22T02:42:03.242Z,52.7392
2023-03-22T02:43:04.632Z,52.6922
2023-03-22T02:44:06.081Z,52.7634
2023-03-22T02:45:07.472Z,52.7182
2023-03-22T02:46:09.020Z,52.6753
2023-03-22T02:47:10.318Z,52.8398
2023-03-22T02:48:11.805Z,52.7416
2023-03-22T02:49:13.193Z,52.7932
2023-03-22T02:50:14.588Z,52.8795
2023-03-22T02:51:15.996Z,52.9513
2023-03-22T02:52:17.437Z,52.7853
2023-03-22T02:53:18.849Z,52.8889
2023-03-22T02:54:20.307Z,52.9273
2023-03-22T02:55:21.675Z,52.8913
2023-03-22T02:56:23.136Z,52.9623
2023-03-22T02:57:24.528Z,52.7977
2023-03-22T02:58:25.964Z,53.0031
2023-03-22T02:59:27.373Z,53.0042
2023-03-22T03:00:28.844Z,52.9667
2023-03-22T03:01:30.295Z,53.0363
2023-03-22T03:02:31.684Z,53.0338
2023-03-22T03:03:33.071Z,52.9444
2023-03-22T03:04:34.507Z,52.9526
2023-03-22T03:05:35.906Z,52.9106
2023-03-22T03:06:37.347Z,52.9319
2023-03-22T03:07:38.774Z,53.0049
2023-03-22T03:08:40.188Z,52.8915
2023-03-22T03:09:41.623Z,52.9840
2023-03-22T03:10:43.049Z,53.0010
2023-03-22T03:11:44.472Z,53.0245
2023-03-22T03:12:45.891Z,52.9317
2023-03-22T03:13:47.307Z,52.9604
2023-03-22T03:14:48.741Z,52.8807
2023-03-22T03:15:50.155Z,52.9750
2023-03-22T03:16:51.591Z,53.0112
2023-03-22T03:17:52.999Z,53.0596
2023-03-22T03:18:54.413Z,53.0472
2023-03-22T03:19:55.830Z,53.0494
2023-03-22T03:20:57.269Z,53.1514
2023-03-22T03:21:58.680Z,53.1288
2023-03-22T03:23:00.112Z,53.0285
2023-03-22T03:24:01.544Z,52.9664
2023-03-22T03:25:02.938Z,53.0281
2023-03-22T03:26:04.352Z,53.1897
2023-03-22T03:27:05.775Z,53.1611
2023-03-22T03:28:07.238Z,53.1725
2023-03-22T03:29:08.627Z,53.1406
2023-03-22T03:30:10.079Z,53.2655
2023-03-22T03:31:11.544Z,53.2623
2023-03-22T03:32:12.905Z,53.0700
2023-03-22T03:33:14.421Z,53.2543
2023-03-22T03:34:15.757Z,53.4568
2023-03-22T03:35:17.203Z,53.3588
2023-03-22T03:36:18.596Z,53.5172
2023-03-22T03:37:20.015Z,53.5225
2023-03-22T03:38:21.442Z,53.5941
2023-03-22T03:39:22.845Z,53.5818
2023-03-22T03:40:24.280Z,53.6406
2023-03-22T03:41:25.697Z,53.7028
2023-03-22T03:42:27.121Z,53.5483
2023-03-22T03:43:28.554Z,53.7724
2023-03-22T03:44:29.988Z,53.7513
2023-03-22T03:45:31.405Z,53.8451
2023-03-22T03:46:32.829Z,53.8461
2023-03-22T03:47:34.248Z,53.6816
2023-03-22T03:48:35.687Z,53.8174
2023-03-22T03:49:37.091Z,53.9267
2023-03-22T03:50:38.868Z,53.9670
2023-03-22T03:51:39.916Z,53.9893
2023-03-22T03:52:41.376Z,53.8685
2023-03-22T03:53:42.767Z,54.0706
2023-03-22T03:54:44.204Z,54.0756
2023-03-22T03:55:45.610Z,54.1146
2023-03-22T03:56:47.033Z,54.0345
2023-03-22T03:57:48.453Z,54.0295
2023-03-22T03:58:49.876Z,54.0339
2023-03-22T03:59:51.316Z,53.8963
2023-03-22T04:00:52.751Z,53.9517
2023-03-22T04:01:54.238Z,54.0357
2023-03-22T04:02:55.576Z,54.1348
2023-03-22T04:03:57.017Z,54.1687
2023-03-22T04:04:58.431Z,53.8700
2023-03-22T04:05:59.971Z,53.8972
2023-03-22T04:07:01.273Z,54.1618
2023-03-22T04:08:02.691Z,53.8484
2023-03-22T04:09:04.138Z,54.1683
2023-03-22T04:10:05.570Z,53.8076
2023-03-22T04:11:06.976Z,54.0237
2023-03-22T04:12:08.403Z,54.0816
2023-03-22T04:13:09.794Z,54.1412
2023-03-22T04:14:11.209Z,53.9949
2023-03-22T04:15:12.638Z,53.9213
2023-03-22T04:16:14.114Z,54.1833
2023-03-22T04:17:15.485Z,54.0123
2023-03-22T04:18:16.896Z,54.1133
2023-03-22T04:19:18.317Z,54.2284
2023-03-22T04:20:19.753Z,54.2480
2023-03-22T04:21:21.212Z,54.2017
2023-03-22T04:22:22.587Z,54.1834
2023-03-22T04:23:24.033Z,54.2188
2023-03-22T04:24:25.476Z,54.1935
2023-03-22T04:25:26.859Z,54.3753
2023-03-22T04:26:28.289Z,54.3312
2023-03-22T04:27:29.714Z,54.3436
2023-03-22T04:28:31.119Z,54.0938
2023-03-22T04:29:32.546Z,54.2466
2023-03-22T04:30:33.970Z,54.2960
2023-03-22T04:31:35.395Z,54.3443
2023-03-22T04:32:36.819Z,54.8160
2023-03-22T04:33:38.251Z,54.3236
2023-03-22T04:34:39.679Z,54.1921
2023-03-22T04:35:41.154Z,54.0158
2023-03-22T04:36:42.526Z,53.7800
2023-03-22T04:37:43.949Z,53.9656
2023-03-22T04:38:45.367Z,53.9125
2023-03-22T04:39:46.801Z,53.6431
2023-03-22T04:40:48.215Z,53.5911
2023-03-22T04:41:49.635Z,53.3478
2023-03-22T04:42:51.055Z,53.0940
2023-03-22T04:43:52.520Z,52.8058
2023-03-22T04:44:53.894Z,52.7232
2023-03-22T04:45:55.365Z,52.6299
2023-03-22T04:46:56.735Z,42.4448
2023-03-22T04:47:58.169Z,37.7657
2023-03-22T04:48:59.570Z,38.2909
2023-03-22T04:50:01.006Z,39.1737
2023-03-22T04:51:02.424Z,40.4910
2023-03-22T04:52:03.836Z,42.1908
2023-03-22T04:53:05.261Z,43.3654
2023-03-22T04:54:06.702Z,47.1455
2023-03-22T04:55:08.121Z,52.8544
2023-03-22T04:56:09.531Z,56.0226
2023-03-22T04:57:10.960Z,54.5697
2023-03-22T04:58:12.370Z,53.1657
2023-03-22T04:59:13.782Z,52.2245
2023-03-22T05:00:15.288Z,51.8107
